Time;durP1;ratioP1;P1;durP2;ratioP2;P2;SDS_P1;SDS_P2;PMS_P1;PMS_P2;Temp;Humidity;BMP_temperature;BMP_pressure;BME280_temperature;BME280_humidity;BME280_pressure;Samples;Min_cycle;Max_cycle;Signal;HPM_P1;HPM_P2
2021/11/30 00:01:21;;;;;;;6.60;2.22;;;4.10;99.90;;;;;;4985776;28;20049;-64
2021/11/30 00:03:47;;;;;;;5.60;2.13;;;4.10;99.90;;;;;;5009699;28;20038;-64
2021/11/30 00:06:13;;;;;;;4.65;1.92;;;4.10;99.90;;;;;;5001630;28;20442;-64
2021/11/30 00:08:40;;;;;;;8.43;1.67;;;4.20;99.90;;;;;;5004779;28;20216;-64
2021/11/30 00:11:08;;;;;;;9.70;2.05;;;4.20;99.90;;;;;;5002538;28;20088;-64
2021/11/30 00:13:35;;;;;;;6.30;1.67;;;4.20;99.90;;;;;;5007710;28;20042;-64
2021/11/30 00:16:02;;;;;;;4.78;1.60;;;4.20;99.90;;;;;;4991581;28;20042;-65
2021/11/30 00:18:33;;;;;;;8.50;2.03;;;4.20;99.90;;;;;;5004997;28;20026;-65
2021/11/30 00:21:04;;;;;;;9.45;1.25;;;4.30;99.90;;;;;;5002396;28;20045;-65
2021/11/30 00:23:31;;;;;;;7.57;1.85;;;4.20;99.90;;;;;;5007988;28;20490;-64
2021/11/30 00:25:57;;;;;;;5.93;1.58;;;4.30;99.90;;;;;;5002699;28;20073;-65
2021/11/30 00:28:22;;;;;;;5.57;1.35;;;4.30;99.90;;;;;;5004822;28;20485;-65
2021/11/30 00:30:49;;;;;;;7.10;1.20;;;4.30;99.90;;;;;;5003997;28;20103;-65
2021/11/30 00:33:16;;;;;;;5.68;1.30;;;4.30;99.90;;;;;;5008171;28;20041;-65
2021/11/30 00:35:42;;;;;;;8.43;1.23;;;4.30;99.90;;;;;;5002101;28;20042;-64
2021/11/30 00:38:12;;;;;;;7.07;1.58;;;4.30;99.90;;;;;;5005846;28;20154;-64
2021/11/30 00:40:39;;;;;;;6.43;1.27;;;4.30;99.90;;;;;;5009763;28;20034;-64
2021/11/30 00:43:05;;;;;;;9.30;1.55;;;4.40;99.90;;;;;;5006165;28;20505;-64
2021/11/30 00:45:50;;;;;;;7.07;0.98;;;4.40;99.90;;;;;;5009488;28;20120;-64
2021/11/30 00:48:20;;;;;;;5.85;1.20;;;4.40;99.90;;;;;;5008613;28;20097;-64
2021/11/30 00:50:46;;;;;;;5.40;1.10;;;4.50;99.90;;;;;;5010177;28;20049;-64
2021/11/30 00:53:12;;;;;;;6.07;1.77;;;4.40;99.90;;;;;;5002991;28;20041;-64
2021/11/30 00:55:38;;;;;;;6.65;1.33;;;4.50;99.90;;;;;;5011035;28;20073;-64
2021/11/30 00:58:05;;;;;;;5.55;1.15;;;4.50;99.90;;;;;;5004120;28;20047;-64
2021/11/30 01:00:34;;;;;;;7.45;1.30;;;4.50;99.90;;;;;;5012778;28;20366;-64
2021/11/30 01:03:01;;;;;;;6.38;1.10;;;4.50;99.90;;;;;;5005204;28;20072;-64
2021/11/30 01:05:26;;;;;;;8.05;1.15;;;4.50;99.90;;;;;;4993519;28;20053;-64
2021/11/30 01:07:52;;;;;;;5.03;1.25;;;4.50;99.90;;;;;;5005285;28;20057;-64
2021/11/30 01:10:18;;;;;;;3.60;1.30;;;4.50;99.90;;;;;;5012558;28;20125;-64
2021/11/30 01:12:44;;;;;;;4.82;1.10;;;4.50;99.90;;;;;;4989672;28;20429;-64
2021/11/30 01:15:13;;;;;;;4.97;1.17;;;4.50;99.90;;;;;;5010641;28;20038;-64
2021/11/30 01:17:39;;;;;;;8.48;1.42;;;4.60;99.90;;;;;;5007014;28;20066;-64
2021/11/30 01:20:06;;;;;;;10.88;2.47;;;4.50;99.90;;;;;;5009495;28;20057;-64
2021/11/30 01:22:32;;;;;;;8.43;2.10;;;4.50;99.90;;;;;;5003955;28;20132;-64
2021/11/30 01:24:58;;;;;;;7.85;1.77;;;4.40;99.90;;;;;;5007928;28;20127;-64
2021/11/30 01:27:24;;;;;;;5.25;1.55;;;4.40;99.90;;;;;;5010265;28;20524;-64
2021/11/30 01:29:50;;;;;;;7.30;1.58;;;4.40;99.90;;;;;;5004966;28;20053;-64
2021/11/30 01:32:16;;;;;;;10.95;2.25;;;4.40;99.90;;;;;;5008241;28;20120;-64
2021/11/30 01:34:42;;;;;;;7.47;1.55;;;4.30;99.90;;;;;;5003093;28;20117;-64
2021/11/30 01:37:13;;;;;;;8.77;1.80;;;4.30;99.90;;;;;;5008904;28;20172;-64
2021/11/30 01:39:40;;;;;;;12.45;2.25;;;4.30;99.90;;;;;;5001763;28;20513;-64
2021/11/30 01:42:06;;;;;;;7.57;1.55;;;4.30;99.90;;;;;;5007049;28;20046;-64
2021/11/30 01:49:34;;;;;;;8.45;1.92;;;4.30;99.90;;;;;;5004303;28;20042;-64
2021/11/30 01:52:02;;;;;;;4.63;2.03;;;4.30;99.90;;;;;;5006100;28;20069;-64
2021/11/30 01:54:27;;;;;;;9.80;2.40;;;4.30;99.90;;;;;;5004473;28;20532;-64
2021/11/30 01:56:53;;;;;;;8.68;2.08;;;4.20;99.90;;;;;;5008009;28;20038;-64
2021/11/30 01:59:19;;;;;;;13.23;2.83;;;4.20;99.90;;;;;;5003660;28;20062;-64
2021/11/30 02:01:44;;;;;;;9.73;2.47;;;4.20;99.90;;;;;;5009093;28;20046;-65
2021/11/30 02:04:10;;;;;;;12.00;3.30;;;4.20;99.90;;;;;;5002001;28;20072;-64
2021/11/30 02:06:36;;;;;;;11.13;2.97;;;4.20;99.90;;;;;;5004453;28;20413;-65
2021/11/30 02:09:03;;;;;;;9.90;3.15;;;4.20;99.90;;;;;;5008658;28;20099;-65
2021/11/30 02:11:29;;;;;;;9.63;2.95;;;4.20;99.90;;;;;;5008580;28;20420;-65
2021/11/30 02:13:55;;;;;;;10.52;3.60;;;4.20;99.90;;;;;;5006125;28;20135;-64
2021/11/30 02:16:22;;;;;;;9.43;3.17;;;4.20;99.90;;;;;;5002768;28;20038;-65
2021/11/30 02:18:48;;;;;;;9.52;3.83;;;4.20;99.90;;;;;;4995243;28;20089;-65
2021/11/30 02:21:14;;;;;;;9.77;3.30;;;4.20;99.90;;;;;;5004354;28;20049;-64
2021/11/30 02:23:47;;;;;;;11.70;3.72;;;4.20;99.90;;;;;;5008558;28;20048;-64
2021/11/30 02:26:14;;;;;;;11.68;3.85;;;4.20;99.90;;;;;;4989994;28;20053;-64
2021/11/30 02:28:43;;;;;;;9.13;3.72;;;4.20;99.90;;;;;;5009503;28;20077;-65
2021/11/30 02:31:11;;;;;;;10.48;3.15;;;4.20;99.90;;;;;;5003330;28;20064;-65
2021/11/30 02:33:38;;;;;;;10.85;3.13;;;4.20;99.90;;;;;;5005371;28;20045;-64
2021/11/30 02:36:29;;;;;;;10.27;3.45;;;4.20;99.90;;;;;;5003013;28;20458;-64
2021/11/30 02:38:57;;;;;;;7.78;3.38;;;4.20;99.90;;;;;;5009287;28;20582;-64
2021/11/30 02:41:23;;;;;;;12.45;3.53;;;4.30;99.90;;;;;;5003296;28;20042;-65
2021/11/30 02:43:50;;;;;;;9.45;3.60;;;4.30;99.90;;;;;;5007317;28;20041;-64
2021/11/30 02:46:39;;;;;;;6.22;3.75;;;4.30;99.90;;;;;;5000534;28;20038;-65
2021/11/30 02:49:07;;;;;;;9.40;3.05;;;4.30;99.90;;;;;;5006316;28;20569;-65
2021/11/30 02:51:35;;;;;;;7.65;2.95;;;4.30;99.90;;;;;;5003069;28;20046;-64
2021/11/30 02:54:05;;;;;;;8.30;3.28;;;4.30;99.90;;;;;;5007823;28;20036;-65
2021/11/30 02:56:40;;;;;;;5.15;3.63;;;4.30;99.90;;;;;;5003231;28;20038;-65
2021/11/30 02:59:07;;;;;;;6.85;3.92;;;4.30;99.90;;;;;;5008224;28;20482;-65
2021/11/30 03:01:33;;;;;;;8.18;4.90;;;4.30;99.90;;;;;;5002887;28;20049;-66
2021/11/30 03:03:59;;;;;;;7.20;4.35;;;4.30;99.90;;;;;;4990468;28;20038;-66
2021/11/30 03:06:24;;;;;;;5.45;3.85;;;4.40;99.90;;;;;;5005092;28;20038;-66
2021/11/30 03:08:50;;;;;;;6.18;4.13;;;4.40;99.90;;;;;;5005992;28;20117;-66
2021/11/30 03:11:16;;;;;;;7.45;4.53;;;4.40;99.90;;;;;;5007783;28;20099;-66
2021/11/30 03:13:41;;;;;;;8.35;4.80;;;4.40;99.90;;;;;;5001659;28;20526;-64
2021/11/30 03:16:07;;;;;;;8.00;4.55;;;4.40;99.90;;;;;;5008879;28;20104;-65
2021/11/30 03:18:36;;;;;;;6.38;3.75;;;4.40;99.90;;;;;;5001839;28;20034;-64
2021/11/30 03:21:05;;;;;;;8.45;4.72;;;4.40;99.90;;;;;;5005539;28;20033;-64
2021/11/30 03:23:31;;;;;;;7.47;4.22;;;4.50;99.90;;;;;;5004211;28;20041;-66
2021/11/30 03:25:57;;;;;;;7.50;4.38;;;4.50;99.90;;;;;;5010584;28;20069;-65
2021/11/30 03:28:22;;;;;;;4.30;3.30;;;4.50;99.90;;;;;;4989352;28;20096;-65
2021/11/30 03:31:01;;;;;;;4.68;4.03;;;4.50;99.90;;;;;;5006899;28;20091;-64
2021/11/30 03:36:11;;;;;;;4.78;4.10;;;4.60;99.90;;;;;;5006524;28;20147;-64
2021/11/30 03:38:37;;;;;;;6.03;4.00;;;4.60;99.90;;;;;;4986682;28;20104;-65
2021/11/30 03:41:03;;;;;;;6.10;4.32;;;4.60;99.90;;;;;;5006989;28;20042;-65
2021/11/30 03:43:28;;;;;;;5.35;3.97;;;4.60;99.90;;;;;;5002823;28;20496;-64
2021/11/30 03:45:54;;;;;;;5.35;4.00;;;4.70;99.90;;;;;;5007937;28;20048;-64
2021/11/30 03:48:20;;;;;;;6.35;3.58;;;4.70;99.90;;;;;;5001011;28;20567;-64
2021/11/30 03:50:47;;;;;;;5.63;3.28;;;4.80;99.90;;;;;;5008402;28;20088;-64
2021/11/30 03:53:12;;;;;;;5.07;3.45;;;4.80;99.90;;;;;;5003125;28;20037;-65
2021/11/30 03:55:38;;;;;;;3.92;3.22;;;4.80;99.90;;;;;;4988994;28;20481;-64
2021/11/30 03:58:04;;;;;;;4.53;3.35;;;4.80;99.90;;;;;;4993775;28;20047;-64
2021/11/30 04:00:30;;;;;;;3.85;3.42;;;4.90;99.90;;;;;;4982383;28;20046;-64
2021/11/30 04:02:56;;;;;;;4.38;3.70;;;4.90;99.90;;;;;;4981219;28;22077;-64
2021/11/30 04:05:22;;;;;;;5.22;3.67;;;4.90;99.90;;;;;;4982083;28;20076;-64
2021/11/30 04:07:48;;;;;;;3.85;3.50;;;5.00;99.90;;;;;;4988458;28;20113;-65
2021/11/30 04:10:14;;;;;;;4.60;3.70;;;5.00;99.90;;;;;;4984984;28;20121;-65
2021/11/30 04:12:40;;;;;;;5.30;4.40;;;5.00;99.90;;;;;;4985998;28;20061;-64
2021/11/30 04:15:06;;;;;;;4.82;4.18;;;5.00;99.90;;;;;;4983301;28;20132;-64
2021/11/30 04:17:33;;;;;;;6.15;4.78;;;5.10;99.90;;;;;;4988892;28;20066;-65
2021/11/30 04:19:58;;;;;;;5.65;5.03;;;5.10;99.90;;;;;;4984064;28;20584;-64
2021/11/30 04:22:24;;;;;;;5.13;4.63;;;5.10;99.90;;;;;;4991943;28;20026;-64
2021/11/30 04:24:50;;;;;;;6.60;5.82;;;5.10;99.90;;;;;;4989384;28;20038;-64
2021/11/30 04:27:16;;;;;;;7.82;6.20;;;5.20;99.90;;;;;;4990899;28;20034;-64
2021/11/30 04:29:43;;;;;;;8.75;5.63;;;5.20;99.90;;;;;;4986117;28;20048;-64
2021/11/30 04:32:10;;;;;;;7.40;5.43;;;5.30;99.90;;;;;;4989488;28;20118;-64
2021/11/30 04:34:35;;;;;;;7.47;6.32;;;5.40;99.90;;;;;;4988501;28;20125;-64
2021/11/30 04:37:01;;;;;;;5.88;5.10;;;5.40;99.90;;;;;;4982756;28;20046;-64
2021/11/30 04:39:27;;;;;;;7.55;5.50;;;5.50;99.90;;;;;;4989521;28;20514;-64
2021/11/30 04:41:52;;;;;;;6.00;4.78;;;5.60;99.90;;;;;;4985207;28;20034;-64
2021/11/30 04:44:20;;;;;;;8.10;5.65;;;5.70;99.90;;;;;;4993737;28;20470;-64
2021/11/30 04:46:56;;;;;;;8.50;5.93;;;5.70;99.90;;;;;;4985481;28;20544;-64
2021/11/30 04:51:57;;;;;;;7.75;6.13;;;5.80;99.90;;;;;;4986665;28;20145;-64
2021/11/30 04:54:23;;;;;;;11.55;7.28;;;5.90;99.90;;;;;;4991964;28;20122;-64
2021/11/30 04:56:49;;;;;;;15.88;9.05;;;5.90;99.90;;;;;;4985054;28;20046;-64
2021/11/30 04:59:17;;;;;;;13.38;8.50;;;6.00;99.90;;;;;;5005886;28;20053;-64
2021/11/30 05:01:43;;;;;;;13.23;8.88;;;6.00;99.90;;;;;;5003998;28;20064;-64
2021/11/30 05:04:09;;;;;;;16.42;9.43;;;6.10;99.90;;;;;;5007783;28;20481;-64
2021/11/30 05:06:35;;;;;;;16.27;10.80;;;6.10;99.90;;;;;;5006172;28;20057;-64
2021/11/30 05:09:02;;;;;;;22.52;11.50;;;6.10;99.90;;;;;;5007521;28;20468;-64
2021/11/30 05:11:28;;;;;;;16.40;9.90;;;6.10;99.90;;;;;;5002863;28;20108;-64
2021/11/30 05:13:54;;;;;;;24.15;12.43;;;6.20;99.90;;;;;;5003979;28;20049;-64
2021/11/30 05:16:20;;;;;;;18.55;10.52;;;6.20;99.90;;;;;;5006842;28;20042;-64
2021/11/30 05:18:46;;;;;;;29.45;13.60;;;6.30;99.90;;;;;;5011504;28;20390;-64
2021/11/30 05:21:11;;;;;;;18.63;11.65;;;6.30;99.90;;;;;;5009221;28;20386;-64
2021/11/30 05:23:38;;;;;;;16.40;8.90;;;6.40;99.90;;;;;;5004068;28;20034;-64
2021/11/30 05:26:05;;;;;;;20.20;6.93;;;6.40;99.90;;;;;;5004195;28;20050;-64
2021/11/30 05:28:34;;;;;;;29.08;8.00;;;6.60;99.90;;;;;;5003400;28;20061;-64
2021/11/30 05:31:01;;;;;;;22.92;7.25;;;6.90;99.90;;;;;;5009865;28;20057;-64
2021/11/30 05:33:27;;;;;;;21.60;7.65;;;7.10;99.90;;;;;;5004837;28;20038;-65
2021/11/30 05:35:54;;;;;;;25.67;6.28;;;7.40;99.90;;;;;;5007705;28;20053;-63
2021/11/30 05:38:19;;;;;;;25.08;7.95;;;7.50;99.90;;;;;;5007365;28;20527;-63
2021/11/30 05:40:46;;;;;;;24.27;6.75;;;7.70;99.90;;;;;;5008228;28;20038;-63
2021/11/30 05:43:13;;;;;;;23.63;6.05;;;7.80;99.90;;;;;;5004365;28;20069;-65
2021/11/30 05:45:39;;;;;;;22.63;5.28;;;7.90;99.90;;;;;;4994732;28;20042;-65
2021/11/30 05:48:05;;;;;;;13.98;4.25;;;7.90;99.90;;;;;;5003069;28;20052;-64
2021/11/30 05:50:31;;;;;;;18.88;4.28;;;7.90;99.90;;;;;;5009103;28;20042;-65
2021/11/30 05:52:57;;;;;;;10.77;3.92;;;7.90;99.90;;;;;;5005605;28;20038;-65
2021/11/30 05:55:23;;;;;;;8.82;3.20;;;7.90;99.90;;;;;;4998744;28;20037;-65
2021/11/30 05:57:49;;;;;;;14.23;3.15;;;8.00;99.90;;;;;;5008089;28;20034;-65
2021/11/30 06:00:17;;;;;;;21.92;4.25;;;8.00;99.90;;;;;;5004977;28;20042;-66
2021/11/30 06:05:27;;;;;;;18.73;3.35;;;8.10;99.90;;;;;;5002906;28;20049;-65
2021/11/30 06:07:53;;;;;;;13.52;2.38;;;8.10;99.90;;;;;;5010019;28;20048;-65
2021/11/30 06:10:19;;;;;;;20.13;2.67;;;8.10;99.90;;;;;;5004644;28;20045;-64
2021/11/30 06:12:45;;;;;;;16.55;3.30;;;8.10;99.90;;;;;;5007820;28;20033;-65
2021/11/30 06:15:11;;;;;;;19.10;1.88;;;8.10;99.90;;;;;;5002983;28;20034;-64
2021/11/30 06:17:37;;;;;;;15.60;1.60;;;8.20;99.90;;;;;;5009299;28;20041;-65
2021/11/30 06:20:05;;;;;;;15.02;2.10;;;8.20;99.90;;;;;;5006708;28;20049;-65
2021/11/30 06:22:31;;;;;;;20.08;1.50;;;8.20;99.90;;;;;;5010372;28;20046;-65
2021/11/30 06:24:57;;;;;;;14.80;1.75;;;8.20;99.90;;;;;;5006469;28;20368;-65
2021/11/30 06:27:23;;;;;;;15.60;1.88;;;8.20;99.90;;;;;;5010651;28;20033;-65
2021/11/30 06:29:48;;;;;;;16.92;1.85;;;8.20;99.90;;;;;;5006267;28;20056;-65
2021/11/30 06:32:14;;;;;;;15.27;1.52;;;8.20;99.90;;;;;;4995079;28;20141;-65
2021/11/30 06:34:40;;;;;;;17.15;1.83;;;8.20;99.90;;;;;;4996373;28;20490;-65
2021/11/30 06:37:08;;;;;;;11.55;1.35;;;8.20;99.90;;;;;;4996979;28;20046;-65
2021/11/30 06:39:37;;;;;;;11.30;1.45;;;8.20;99.90;;;;;;4995006;28;20061;-65
2021/11/30 06:42:04;;;;;;;12.82;1.52;;;8.30;99.90;;;;;;4986928;28;20144;-65
2021/11/30 06:44:33;;;;;;;12.43;1.63;;;8.30;99.90;;;;;;4983013;28;20188;-65
2021/11/30 06:46:59;;;;;;;12.57;1.60;;;8.20;99.90;;;;;;5005389;28;20046;-65
2021/11/30 06:49:24;;;;;;;13.25;1.70;;;8.30;99.90;;;;;;5007725;28;20532;-65
2021/11/30 06:51:50;;;;;;;19.70;2.10;;;8.30;99.90;;;;;;5005914;28;20049;-65
2021/11/30 06:54:16;;;;;;;17.23;2.08;;;8.20;99.90;;;;;;5010940;28;20069;-65
2021/11/30 06:56:41;;;;;;;14.63;2.10;;;8.20;99.90;;;;;;5003880;28;20463;-65
2021/11/30 06:59:08;;;;;;;20.08;2.25;;;8.10;99.90;;;;;;5006304;28;20069;-65
2021/11/30 07:01:34;;;;;;;19.48;2.50;;;8.10;99.90;;;;;;4988721;28;20069;-65
2021/11/30 07:04:02;;;;;;;15.02;1.70;;;8.10;99.90;;;;;;5011657;28;20099;-65
2021/11/30 07:14:05;;;;;;;17.02;1.90;;;8.10;99.90;;;;;;5008234;28;20057;-65
2021/11/30 07:16:31;;;;;;;16.17;1.88;;;8.00;99.90;;;;;;5003603;28;20046;-65
2021/11/30 07:18:58;;;;;;;20.90;2.58;;;8.00;99.90;;;;;;5011578;28;20056;-65
2021/11/30 07:21:26;;;;;;;19.58;2.30;;;8.00;99.90;;;;;;5002047;28;20037;-65
2021/11/30 07:23:52;;;;;;;16.98;2.00;;;8.00;99.90;;;;;;5007133;28;20038;-65
2021/11/30 07:26:18;;;;;;;16.85;1.77;;;8.00;99.90;;;;;;5005522;28;20061;-65
2021/11/30 07:28:44;;;;;;;19.17;1.80;;;8.00;99.90;;;;;;5003392;28;20474;-65
2021/11/30 07:31:12;;;;;;;18.67;1.85;;;8.00;99.90;;;;;;5006076;28;20042;-65
2021/11/30 07:33:42;;;;;;;21.08;2.47;;;8.00;99.90;;;;;;5000960;28;20137;-65
2021/11/30 07:36:11;;;;;;;15.73;1.77;;;8.00;99.90;;;;;;4996385;28;20482;-65
2021/11/30 07:38:39;;;;;;;14.07;1.92;;;8.00;99.90;;;;;;5000358;28;20030;-65
2021/11/30 07:41:06;;;;;;;20.27;1.98;;;7.90;99.90;;;;;;4988357;28;20432;-65
2021/11/30 07:43:32;;;;;;;15.52;1.50;;;7.90;99.90;;;;;;5002049;28;20038;-65
2021/11/30 07:45:58;;;;;;;20.23;2.42;;;7.90;99.90;;;;;;5004634;28;20041;-65
2021/11/30 07:48:26;;;;;;;23.60;2.47;;;7.90;99.90;;;;;;5001643;28;20107;-65
2021/11/30 07:50:51;;;;;;;16.90;2.15;;;7.90;99.90;;;;;;5007773;28;20215;-65
2021/11/30 07:53:17;;;;;;;22.75;2.60;;;7.90;99.90;;;;;;5002232;28;20030;-65
2021/11/30 07:55:44;;;;;;;16.88;2.53;;;7.90;99.90;;;;;;4996497;28;20053;-65
2021/11/30 07:58:09;;;;;;;17.58;2.42;;;8.00;99.90;;;;;;4982299;28;20041;-65
2021/11/30 08:00:36;;;;;;;23.77;2.35;;;7.90;99.90;;;;;;5007087;28;21406;-65
2021/11/30 08:03:02;;;;;;;21.95;2.33;;;8.00;99.90;;;;;;5002181;28;20053;-65
2021/11/30 08:05:28;;;;;;;19.80;1.80;;;8.00;99.90;;;;;;5005658;28;20122;-65
2021/11/30 08:07:54;;;;;;;27.60;2.72;;;8.00;99.90;;;;;;5001887;28;20126;-65
2021/11/30 08:10:21;;;;;;;26.85;3.08;;;8.00;99.90;;;;;;5005032;28;20172;-65
2021/11/30 08:12:47;;;;;;;21.08;2.17;;;8.00;99.90;;;;;;5005040;28;20513;-65
2021/11/30 08:15:16;;;;;;;16.38;2.90;;;8.00;99.90;;;;;;5002517;28;20041;-65
2021/11/30 08:17:41;;;;;;;12.82;1.63;;;8.00;99.90;;;;;;5006171;28;20563;-65
2021/11/30 08:20:08;;;;;;;21.95;2.28;;;8.00;99.90;;;;;;4988241;28;20042;-65
2021/11/30 08:22:35;;;;;;;17.90;2.40;;;8.00;99.90;;;;;;5005856;28;20046;-65
2021/11/30 08:25:00;;;;;;;21.13;3.13;;;8.10;99.90;;;;;;5004251;28;20057;-65
2021/11/30 08:27:26;;;;;;;17.42;2.33;;;8.10;99.90;;;;;;5007571;28;20034;-65
2021/11/30 08:29:52;;;;;;;21.00;3.13;;;8.10;99.90;;;;;;5002841;28;20048;-66
2021/11/30 08:32:22;;;;;;;11.93;1.58;;;8.10;99.90;;;;;;5009718;28;20073;-65
2021/11/30 08:34:48;;;;;;;20.77;1.77;;;8.10;99.90;;;;;;5004945;28;20057;-65
2021/11/30 08:37:13;;;;;;;17.75;2.30;;;8.10;99.90;;;;;;5004626;28;20046;-65
2021/11/30 08:39:39;;;;;;;17.17;2.05;;;8.20;99.90;;;;;;5002618;28;20049;-65
2021/11/30 08:42:10;;;;;;;13.80;1.80;;;8.20;99.90;;;;;;5007490;28;20119;-65
2021/11/30 08:44:36;;;;;;;12.88;1.85;;;8.20;99.90;;;;;;5001310;28;20037;-65
2021/11/30 08:47:05;;;;;;;13.00;2.40;;;8.20;99.90;;;;;;4993288;28;20399;-65
2021/11/30 08:49:31;;;;;;;21.17;2.47;;;8.20;99.90;;;;;;4986645;28;20533;-65
2021/11/30 08:51:57;;;;;;;17.38;2.20;;;8.10;99.90;;;;;;5003296;28;20045;-66
2021/11/30 08:54:25;;;;;;;17.25;2.53;;;8.20;99.90;;;;;;5009289;28;20069;-66
2021/11/30 08:56:51;;;;;;;11.02;1.45;;;8.20;99.90;;;;;;4999616;28;20128;-65
2021/11/30 08:59:16;;;;;;;16.80;1.92;;;8.20;99.90;;;;;;5005615;28;20057;-65
2021/11/30 09:01:43;;;;;;;15.93;1.77;;;8.10;99.90;;;;;;5005562;28;20453;-67
2021/11/30 09:04:09;;;;;;;12.35;2.08;;;8.20;99.90;;;;;;5010433;28;20033;-66
2021/11/30 09:06:35;;;;;;;16.42;2.95;;;8.20;99.90;;;;;;5003160;28;20044;-66
2021/11/30 09:09:03;;;;;;;16.67;2.33;;;8.20;99.90;;;;;;5010568;28;20033;-66
2021/11/30 09:11:28;;;;;;;15.40;1.70;;;8.20;99.90;;;;;;5005006;28;20112;-67
2021/11/30 09:13:54;;;;;;;18.88;1.88;;;8.20;99.90;;;;;;5008545;28;20474;-65
2021/11/30 09:16:21;;;;;;;13.82;1.40;;;8.20;99.90;;;;;;5003301;28;20044;-65
2021/11/30 09:18:48;;;;;;;16.10;1.88;;;8.20;99.90;;;;;;5009796;28;20143;-65
2021/11/30 09:21:14;;;;;;;17.63;1.85;;;8.20;99.90;;;;;;4991990;28;20038;-65
2021/11/30 09:23:40;;;;;;;14.40;2.38;;;8.20;99.90;;;;;;5010732;28;20041;-66
2021/11/30 09:26:06;;;;;;;18.23;2.22;;;8.20;99.90;;;;;;5003786;28;20112;-66
2021/11/30 09:28:31;;;;;;;18.80;2.08;;;8.20;99.90;;;;;;5010097;28;20042;-65
2021/11/30 09:30:57;;;;;;;14.57;1.80;;;8.30;99.90;;;;;;4998931;28;20042;-66
2021/11/30 09:33:23;;;;;;;16.67;2.08;;;8.20;99.90;;;;;;5003204;28;20029;-65
2021/11/30 09:35:48;;;;;;;13.88;2.15;;;8.30;99.90;;;;;;5010853;28;20048;-65
2021/11/30 09:38:14;;;;;;;19.25;2.00;;;8.30;99.90;;;;;;5005049;28;20129;-65
2021/11/30 09:40:40;;;;;;;13.88;2.17;;;8.40;99.90;;;;;;5007970;28;20211;-65
2021/11/30 09:43:09;;;;;;;9.20;1.92;;;8.40;99.90;;;;;;5001647;28;20052;-65
2021/11/30 09:45:39;;;;;;;8.27;1.20;;;8.40;99.90;;;;;;5003833;28;20058;-66
2021/11/30 09:48:11;;;;;;;11.57;1.83;;;8.40;99.90;;;;;;5001883;28;20046;-65
2021/11/30 09:50:38;;;;;;;13.73;1.83;;;8.50;99.90;;;;;;5004981;28;21008;-65
2021/11/30 09:53:06;;;;;;;12.45;1.67;;;8.50;99.90;;;;;;4990863;28;20030;-66
2021/11/30 09:55:32;;;;;;;15.38;2.05;;;8.50;99.90;;;;;;5011998;28;20482;-65
2021/11/30 09:57:58;;;;;;;16.35;1.85;;;8.50;99.90;;;;;;5002619;28;20136;-66
2021/11/30 10:00:25;;;;;;;11.93;1.33;;;8.50;99.90;;;;;;5007198;28;20042;-66
2021/11/30 10:02:54;;;;;;;10.77;1.05;;;8.50;99.90;;;;;;5005171;28;20042;-65
2021/11/30 10:05:20;;;;;;;15.82;2.05;;;8.50;99.90;;;;;;5010644;28;20505;-66
2021/11/30 10:07:50;;;;;;;10.07;1.23;;;8.40;99.90;;;;;;5001139;28;20076;-66
2021/11/30 10:10:32;;;;;;;12.48;1.70;;;8.40;99.90;;;;;;5007135;28;20068;-66
2021/11/30 10:13:04;;;;;;;11.07;1.65;;;8.40;99.90;;;;;;4985512;28;20046;-66
2021/11/30 10:15:33;;;;;;;12.68;1.45;;;8.40;99.90;;;;;;5006034;28;20050;-66
2021/11/30 10:18:20;;;;;;;9.98;1.00;;;8.40;99.90;;;;;;5004598;28;20045;-66
2021/11/30 10:20:48;;;;;;;12.50;1.58;;;8.50;99.90;;;;;;5005189;28;20046;-66
2021/11/30 10:23:16;;;;;;;8.63;1.23;;;8.50;99.90;;;;;;5002736;28;20084;-65
2021/11/30 10:25:43;;;;;;;6.80;1.20;;;8.50;99.90;;;;;;5010318;28;20056;-65
2021/11/30 10:28:15;;;;;;;6.07;1.00;;;8.60;99.90;;;;;;5007409;28;20158;-65
2021/11/30 10:30:44;;;;;;;11.05;1.30;;;8.50;99.90;;;;;;5003157;28;20045;-66
2021/11/30 10:33:15;;;;;;;15.15;1.60;;;8.60;99.90;;;;;;5009131;28;20100;-66
2021/11/30 10:35:42;;;;;;;10.15;1.25;;;8.60;99.90;;;;;;4997239;28;20062;-65
2021/11/30 10:38:07;;;;;;;8.55;1.50;;;8.60;99.90;;;;;;5003575;28;20073;-66
2021/11/30 10:40:36;;;;;;;8.65;0.95;;;8.70;99.90;;;;;;5001732;28;20116;-66
2021/11/30 10:43:05;;;;;;;8.45;1.77;;;8.70;99.90;;;;;;5008529;28;20038;-66
2021/11/30 10:45:32;;;;;;;10.65;1.10;;;8.60;99.90;;;;;;5002788;28;20092;-65
2021/11/30 10:48:19;;;;;;;7.60;1.20;;;8.60;99.90;;;;;;5006620;28;20037;-65
2021/11/30 10:50:49;;;;;;;10.45;1.20;;;8.60;99.90;;;;;;4998402;28;20513;-65
2021/11/30 10:53:30;;;;;;;12.45;1.13;;;8.50;99.90;;;;;;5008601;28;20045;-65
2021/11/30 10:55:56;;;;;;;10.80;1.35;;;8.50;99.90;;;;;;5002100;28;20053;-65
2021/11/30 10:58:24;;;;;;;14.88;1.45;;;8.50;99.90;;;;;;5003568;28;20030;-65
2021/11/30 11:00:51;;;;;;;10.05;1.13;;;8.40;99.90;;;;;;4986029;28;20388;-66
2021/11/30 11:03:21;;;;;;;7.47;0.90;;;8.40;99.90;;;;;;4991617;28;20145;-65
2021/11/30 11:08:44;;;;;;;7.53;0.98;;;8.40;99.90;;;;;;5003679;28;20461;-65
2021/11/30 11:11:11;;;;;;;11.95;1.35;;;8.30;99.90;;;;;;5001601;28;20156;-65
2021/11/30 11:13:39;;;;;;;11.50;1.13;;;8.30;99.90;;;;;;4984983;28;20088;-65
2021/11/30 11:16:34;;;;;;;11.55;1.55;;;8.30;99.90;;;;;;4986351;28;20050;-65
2021/11/30 11:19:05;;;;;;;13.15;1.50;;;8.20;99.90;;;;;;4996411;28;20080;-65
2021/11/30 11:21:39;;;;;;;11.18;1.20;;;8.20;99.90;;;;;;5002142;28;20512;-66
2021/11/30 11:24:19;;;;;;;13.35;1.38;;;8.20;99.90;;;;;;5008859;28;20513;-66
2021/11/30 11:26:48;;;;;;;11.85;1.77;;;8.20;99.90;;;;;;5005346;28;20409;-66
2021/11/30 11:29:28;;;;;;;9.68;1.55;;;8.10;99.90;;;;;;5003908;28;20513;-66
2021/11/30 11:32:00;;;;;;;12.45;2.50;;;8.20;99.90;;;;;;4983267;28;20053;-66
2021/11/30 11:34:27;;;;;;;13.95;1.38;;;8.10;99.90;;;;;;5002091;28;20046;-66
2021/11/30 11:36:56;;;;;;;14.27;1.75;;;8.20;99.90;;;;;;5001878;28;20133;-66
2021/11/30 11:39:24;;;;;;;16.98;2.05;;;8.20;99.90;;;;;;5005898;28;20422;-66
2021/11/30 11:41:53;;;;;;;18.67;2.05;;;8.20;99.90;;;;;;5000690;28;20034;-66
2021/11/30 11:44:20;;;;;;;11.25;1.73;;;8.20;99.90;;;;;;5004196;28;20034;-66
2021/11/30 11:46:48;;;;;;;13.85;1.52;;;8.00;99.90;;;;;;5004337;28;20049;-66
2021/11/30 11:49:22;;;;;;;13.50;1.92;;;7.90;99.90;;;;;;4990363;28;20165;-67
2021/11/30 11:51:50;;;;;;;9.60;1.65;;;7.80;99.90;;;;;;4990953;28;20140;-66
2021/11/30 11:54:31;;;;;;;15.13;2.10;;;7.60;99.90;;;;;;4991777;28;20080;-66
2021/11/30 11:57:08;;;;;;;13.93;2.08;;;7.60;99.90;;;;;;4999389;28;20053;-66
2021/11/30 11:59:43;;;;;;;12.50;1.50;;;7.50;99.90;;;;;;5002207;28;20077;-66
2021/11/30 12:02:28;;;;;;;14.90;1.67;;;7.40;99.90;;;;;;4982926;28;20148;-66
2021/11/30 12:05:00;;;;;;;18.00;2.38;;;7.40;99.90;;;;;;5007029;28;20394;-66
2021/11/30 12:07:28;;;;;;;10.77;1.70;;;7.40;99.90;;;;;;4999966;28;20180;-66
2021/11/30 12:10:18;;;;;;;19.13;2.20;;;7.40;99.90;;;;;;5006640;28;20053;-66
2021/11/30 12:13:17;;;;;;;12.63;1.92;;;7.30;99.90;;;;;;4997779;28;20050;-66
2021/11/30 12:16:05;;;;;;;15.07;1.77;;;7.40;99.90;;;;;;4991800;28;20050;-66
2021/11/30 12:18:33;;;;;;;16.38;2.15;;;7.40;99.90;;;;;;4997722;28;20035;-66
2021/11/30 12:21:20;;;;;;;10.10;1.27;;;7.40;99.90;;;;;;5003010;28;20052;-66
2021/11/30 12:23:52;;;;;;;14.23;1.60;;;7.40;99.90;;;;;;4994582;28;20054;-66
2021/11/30 12:26:42;;;;;;;12.63;1.58;;;7.40;99.90;;;;;;4992032;28;20045;-66
2021/11/30 12:29:17;;;;;;;14.32;1.70;;;7.40;99.90;;;;;;4978719;28;20588;-66
2021/11/30 12:31:43;;;;;;;14.35;1.70;;;7.40;99.90;;;;;;5007609;28;20053;-66
2021/11/30 12:34:10;;;;;;;13.63;1.65;;;7.30;99.90;;;;;;4979987;28;20054;-66
2021/11/30 12:36:38;;;;;;;13.32;1.85;;;7.30;99.90;;;;;;5006705;28;20050;-66
2021/11/30 12:39:10;;;;;;;14.75;2.13;;;7.30;99.90;;;;;;5003877;28;20105;-66
2021/11/30 12:41:38;;;;;;;18.23;2.00;;;7.30;99.90;;;;;;5011020;28;20564;-66
2021/11/30 12:44:23;;;;;;;15.80;2.03;;;7.30;99.90;;;;;;5002919;28;20922;-65
2021/11/30 12:46:57;;;;;;;17.05;2.50;;;7.30;99.90;;;;;;5009424;28;20104;-65
2021/11/30 12:49:29;;;;;;;11.85;2.03;;;7.30;99.90;;;;;;5006523;28;20462;-65
2021/11/30 12:52:19;;;;;;;18.73;2.28;;;7.30;99.90;;;;;;5012804;28;20473;-65
2021/11/30 12:54:46;;;;;;;13.10;1.55;;;7.30;99.90;;;;;;4988524;28;20504;-67
2021/11/30 12:57:36;;;;;;;20.00;2.58;;;7.30;99.90;;;;;;5001608;28;20100;-66
2021/11/30 13:00:10;;;;;;;21.48;2.35;;;7.30;99.90;;;;;;5004396;28;20713;-66
2021/11/30 13:02:46;;;;;;;17.93;1.90;;;7.30;99.90;;;;;;5011426;28;20038;-66
2021/11/30 13:05:12;;;;;;;21.50;2.85;;;7.30;99.90;;;;;;5002059;28;20373;-66
2021/11/30 13:07:47;;;;;;;17.33;2.42;;;7.30;99.90;;;;;;5011383;28;20038;-66
2021/11/30 13:10:42;;;;;;;14.60;1.83;;;7.30;99.90;;;;;;5004420;28;20048;-65
2021/11/30 13:13:17;;;;;;;;;;;7.40;99.90;;;;;;5007472;28;20073;-65
2021/11/30 13:15:53;;;;;;;9.98;1.52;;;7.40;99.90;;;;;;4998402;28;19948;-65
2021/11/30 13:18:20;;;;;;;19.15;1.92;;;7.40;99.90;;;;;;5009390;28;20080;-65
2021/11/30 13:20:46;;;;;;;20.42;2.15;;;7.40;99.90;;;;;;5004908;28;20164;-65